Terminal Aerodrome Forecast
Issued by NWS Buffalo, NY

Home | Current Version | Previous Version | Text Only | Print | Product List | Glossary On
Versions: 1 2 3 4 5 6 7 8 9 10 11 12 13 14 15 16 17 18 19 20 21 22 23 24 25 26 27 28 29 30 31 32 33 34
000
FTUS41 KBUF 290900 AAA
TAFBUF
TAF AMD
KBUF 290935Z 2910/3006 19008KT P6SM VCSH SCT035 BKN080
      TEMPO 2910/2914 BKN035
     FM291400 18012KT P6SM VCSH BKN035
     FM292000 18012G18KT P6SM BKN050
     FM300200 20014G20KT P6SM BKN035 WS020/24055KT=

USA.gov is the U.S. government's official web portal to all federal, state and local government web resources and services.